sensor_id;sensor_type;location;lat;lon;timestamp;temperature;humidity
11656;DHT22;5884;43.618;1.438;2022-10-22T04:46:13;16.10;99.90
11656;DHT22;5884;43.618;1.438;2022-10-22T04:48:42;16.10;99.90
11656;DHT22;5884;43.618;1.438;2022-10-22T04:51:12;16.10;99.90
11656;DHT22;5884;43.618;1.438;2022-10-22T04:53:41;16.10;99.90
11656;DHT22;5884;43.618;1.438;2022-10-22T04:56:10;16.10;99.90
11656;DHT22;5884;43.618;1.438;2022-10-22T04:58:41;16.10;99.90
11656;DHT22;5884;43.618;1.438;2022-10-22T05:01:12;16.10;99.90
11656;DHT22;5884;43.618;1.438;2022-10-22T05:03:41;16.10;99.90
11656;DHT22;5884;43.618;1.438;2022-10-22T05:06:09;16.00;99.90
11656;DHT22;5884;43.618;1.438;2022-10-22T05:08:37;16.00;99.90
11656;DHT22;5884;43.618;1.438;2022-10-22T05:11:10;15.90;99.90
11656;DHT22;5884;43.618;1.438;2022-10-22T05:13:38;16.00;99.90
11656;DHT22;5884;43.618;1.438;2022-10-22T05:16:07;16.00;99.90
11656;DHT22;5884;43.618;1.438;2022-10-22T05:18:36;15.90;99.90
11656;DHT22;5884;43.618;1.438;2022-10-22T05:21:08;16.00;99.90
11656;DHT22;5884;43.618;1.438;2022-10-22T05:23:35;16.00;99.90
11656;DHT22;5884;43.618;1.438;2022-10-22T05:26:04;16.00;99.90
11656;DHT22;5884;43.618;1.438;2022-10-22T05:28:33;16.00;99.90
11656;DHT22;5884;43.618;1.438;2022-10-22T05:31:02;16.00;99.90
11656;DHT22;5884;43.618;1.438;2022-10-22T05:33:31;16.00;99.90
11656;DHT22;5884;43.618;1.438;2022-10-22T05:36:01;16.10;99.90
11656;DHT22;5884;43.618;1.438;2022-10-22T05:38:30;16.10;99.90
11656;DHT22;5884;43.618;1.438;2022-10-22T05:41:02;16.10;99.90
11656;DHT22;5884;43.618;1.438;2022-10-22T05:43:33;16.10;99.90
11656;DHT22;5884;43.618;1.438;2022-10-22T05:46:02;16.10;99.90
11656;DHT22;5884;43.618;1.438;2022-10-22T05:48:31;16.10;99.90
11656;DHT22;5884;43.618;1.438;2022-10-22T05:51:02;16.10;99.90
11656;DHT22;5884;43.618;1.438;2022-10-22T05:53:30;16.10;99.90
11656;DHT22;5884;43.618;1.438;2022-10-22T05:56:01;16.10;99.90
11656;DHT22;5884;43.618;1.438;2022-10-22T05:58:30;16.10;99.90
11656;DHT22;5884;43.618;1.438;2022-10-22T06:01:01;16.10;99.90
11656;DHT22;5884;43.618;1.438;2022-10-22T06:03:28;16.10;99.90
11656;DHT22;5884;43.618;1.438;2022-10-22T06:05:58;16.00;99.90
11656;DHT22;5884;43.618;1.438;2022-10-22T06:08:29;16.10;99.90
11656;DHT22;5884;43.618;1.438;2022-10-22T06:10:56;16.10;99.90
11656;DHT22;5884;43.618;1.438;2022-10-22T06:13:24;16.10;99.90
11656;DHT22;5884;43.618;1.438;2022-10-22T06:15:51;16.10;99.90
11656;DHT22;5884;43.618;1.438;2022-10-22T06:18:18;16.10;99.90
11656;DHT22;5884;43.618;1.438;2022-10-22T06:20:45;16.10;99.90
11656;DHT22;5884;43.618;1.438;2022-10-22T06:23:15;16.10;99.90
11656;DHT22;5884;43.618;1.438;2022-10-22T06:25:55;16.00;99.90
11656;DHT22;5884;43.618;1.438;2022-10-22T06:28:22;16.00;99.90
11656;DHT22;5884;43.618;1.438;2022-10-22T06:30:50;16.00;99.90
11656;DHT22;5884;43.618;1.438;2022-10-22T06:33:17;16.00;99.90
11656;DHT22;5884;43.618;1.438;2022-10-22T06:35:44;16.00;99.90
11656;DHT22;5884;43.618;1.438;2022-10-22T06:38:14;16.00;99.90
11656;DHT22;5884;43.618;1.438;2022-10-22T06:40:41;16.00;99.90
11656;DHT22;5884;43.618;1.438;2022-10-22T06:43:10;15.90;99.90
11656;DHT22;5884;43.618;1.438;2022-10-22T06:45:38;15.90;99.90
11656;DHT22;5884;43.618;1.438;2022-10-22T06:48:06;15.90;99.90
11656;DHT22;5884;43.618;1.438;2022-10-22T06:50:33;15.90;99.90
11656;DHT22;5884;43.618;1.438;2022-10-22T06:53:01;15.90;99.90
11656;DHT22;5884;43.618;1.438;2022-10-22T06:55:30;15.90;99.90
11656;DHT22;5884;43.618;1.438;2022-10-22T06:57:57;15.90;99.90
11656;DHT22;5884;43.618;1.438;2022-10-22T07:00:24;15.90;99.90
11656;DHT22;5884;43.618;1.438;2022-10-22T07:02:51;15.90;99.90
11656;DHT22;5884;43.618;1.438;2022-10-22T07:05:20;15.80;99.90
11656;DHT22;5884;43.618;1.438;2022-10-22T07:07:47;15.80;99.90
11656;DHT22;5884;43.618;1.438;2022-10-22T07:10:14;15.70;99.90
11656;DHT22;5884;43.618;1.438;2022-10-22T07:12:43;15.80;99.90
11656;DHT22;5884;43.618;1.438;2022-10-22T07:15:10;15.80;99.90
11656;DHT22;5884;43.618;1.438;2022-10-22T07:17:38;15.80;99.90
11656;DHT22;5884;43.618;1.438;2022-10-22T07:20:06;15.80;99.90
11656;DHT22;5884;43.618;1.438;2022-10-22T07:22:34;15.80;99.90
11656;DHT22;5884;43.618;1.438;2022-10-22T07:25:01;15.90;99.90
11656;DHT22;5884;43.618;1.438;2022-10-22T07:27:28;15.90;99.90
11656;DHT22;5884;43.618;1.438;2022-10-22T07:29:58;16.00;99.90
11656;DHT22;5884;43.618;1.438;2022-10-22T07:32:26;16.00;99.90
11656;DHT22;5884;43.618;1.438;2022-10-22T07:34:53;16.10;99.90
11656;DHT22;5884;43.618;1.438;2022-10-22T07:37:20;16.20;99.90
11656;DHT22;5884;43.618;1.438;2022-10-22T07:39:47;16.30;99.90
11656;DHT22;5884;43.618;1.438;2022-10-22T07:42:15;16.30;99.90
11656;DHT22;5884;43.618;1.438;2022-10-22T07:44:42;16.30;99.90
11656;DHT22;5884;43.618;1.438;2022-10-22T07:47:10;16.40;99.90
11656;DHT22;5884;43.618;1.438;2022-10-22T07:49:38;16.40;99.90
11656;DHT22;5884;43.618;1.438;2022-10-22T07:52:06;16.50;99.90
11656;DHT22;5884;43.618;1.438;2022-10-22T07:54:33;16.40;99.90
11656;DHT22;5884;43.618;1.438;2022-10-22T07:57:00;16.50;99.90
11656;DHT22;5884;43.618;1.438;2022-10-22T07:59:28;16.60;99.90
11656;DHT22;5884;43.618;1.438;2022-10-22T08:01:55;16.60;99.90
11656;DHT22;5884;43.618;1.438;2022-10-22T08:04:23;16.70;99.90
11656;DHT22;5884;43.618;1.438;2022-10-22T08:06:50;16.70;99.90
11656;DHT22;5884;43.618;1.438;2022-10-22T08:09:18;16.80;99.90
11656;DHT22;5884;43.618;1.438;2022-10-22T08:11:45;16.90;99.90
11656;DHT22;5884;43.618;1.438;2022-10-22T08:14:12;17.00;99.90
11656;DHT22;5884;43.618;1.438;2022-10-22T08:16:39;17.00;99.90
11656;DHT22;5884;43.618;1.438;2022-10-22T08:19:07;17.10;99.90
11656;DHT22;5884;43.618;1.438;2022-10-22T08:21:35;17.10;99.90
11656;DHT22;5884;43.618;1.438;2022-10-22T08:24:03;17.10;99.90
11656;DHT22;5884;43.618;1.438;2022-10-22T08:26:30;17.20;99.90
11656;DHT22;5884;43.618;1.438;2022-10-22T08:28:58;17.20;99.90
11656;DHT22;5884;43.618;1.438;2022-10-22T08:31:25;17.30;99.90
11656;DHT22;5884;43.618;1.438;2022-10-22T08:33:52;17.40;99.90
11656;DHT22;5884;43.618;1.438;2022-10-22T08:36:19;17.40;99.90
11656;DHT22;5884;43.618;1.438;2022-10-22T08:38:48;17.50;99.90
11656;DHT22;5884;43.618;1.438;2022-10-22T08:41:17;17.60;99.90
11656;DHT22;5884;43.618;1.438;2022-10-22T08:47:21;17.80;99.90
11656;DHT22;5884;43.618;1.438;2022-10-22T08:49:53;17.80;99.90
11656;DHT22;5884;43.618;1.438;2022-10-22T08:52:21;17.80;99.90
11656;DHT22;5884;43.618;1.438;2022-10-22T08:54:52;17.90;99.90
11656;DHT22;5884;43.618;1.438;2022-10-22T08:57:41;18.00;99.90
11656;DHT22;5884;43.618;1.438;2022-10-22T09:00:15;18.10;99.90
11656;DHT22;5884;43.618;1.438;2022-10-22T09:02:56;18.20;99.90
11656;DHT22;5884;43.618;1.438;2022-10-22T09:05:35;18.40;99.90
11656;DHT22;5884;43.618;1.438;2022-10-22T09:08:09;18.50;99.90
11656;DHT22;5884;43.618;1.438;2022-10-22T09:10:45;18.50;99.90
11656;DHT22;5884;43.618;1.438;2022-10-22T09:13:16;18.60;99.90
11656;DHT22;5884;43.618;1.438;2022-10-22T09:15:48;18.80;99.90
11656;DHT22;5884;43.618;1.438;2022-10-22T09:18:28;18.90;99.90
11656;DHT22;5884;43.618;1.438;2022-10-22T09:21:05;18.90;99.90
11656;DHT22;5884;43.618;1.438;2022-10-22T09:23:51;19.00;99.90
11656;DHT22;5884;43.618;1.438;2022-10-22T09:26:26;19.10;99.90
11656;DHT22;5884;43.618;1.438;2022-10-22T09:28:53;19.30;99.90
11656;DHT22;5884;43.618;1.438;2022-10-22T09:31:20;19.30;99.90
11656;DHT22;5884;43.618;1.438;2022-10-22T09:33:49;19.40;99.90
11656;DHT22;5884;43.618;1.438;2022-10-22T09:36:19;19.50;99.90
11656;DHT22;5884;43.618;1.438;2022-10-22T09:38:50;19.50;99.90
11656;DHT22;5884;43.618;1.438;2022-10-22T09:41:19;19.60;99.90
11656;DHT22;5884;43.618;1.438;2022-10-22T09:43:50;19.60;99.90
11656;DHT22;5884;43.618;1.438;2022-10-22T09:46:21;19.70;99.90
11656;DHT22;5884;43.618;1.438;2022-10-22T09:48:52;19.80;99.90
11656;DHT22;5884;43.618;1.438;2022-10-22T09:51:36;19.80;99.90
11656;DHT22;5884;43.618;1.438;2022-10-22T09:54:16;19.90;99.90
11656;DHT22;5884;43.618;1.438;2022-10-22T09:56:51;20.00;99.90
11656;DHT22;5884;43.618;1.438;2022-10-22T09:59:28;20.20;99.90
11656;DHT22;5884;43.618;1.438;2022-10-22T10:01:58;20.30;99.90
11656;DHT22;5884;43.618;1.438;2022-10-22T10:04:29;20.30;99.90
11656;DHT22;5884;43.618;1.438;2022-10-22T10:07:00;20.40;99.90
11656;DHT22;5884;43.618;1.438;2022-10-22T10:09:30;20.40;99.90
11656;DHT22;5884;43.618;1.438;2022-10-22T10:12:07;20.60;99.90
11656;DHT22;5884;43.618;1.438;2022-10-22T10:14:46;20.80;99.90
11656;DHT22;5884;43.618;1.438;2022-10-22T10:17:27;20.90;99.90
11656;DHT22;5884;43.618;1.438;2022-10-22T10:20:10;20.90;99.90
11656;DHT22;5884;43.618;1.438;2022-10-22T10:22:52;21.00;99.90
11656;DHT22;5884;43.618;1.438;2022-10-22T10:25:35;21.00;99.90
11656;DHT22;5884;43.618;1.438;2022-10-22T10:28:18;21.20;99.90
11656;DHT22;5884;43.618;1.438;2022-10-22T10:30:56;21.20;99.90
11656;DHT22;5884;43.618;1.438;2022-10-22T10:33:36;21.40;99.90
11656;DHT22;5884;43.618;1.438;2022-10-22T10:36:13;21.50;99.90
11656;DHT22;5884;43.618;1.438;2022-10-22T10:38:53;21.60;99.90
11656;DHT22;5884;43.618;1.438;2022-10-22T10:41:32;21.70;99.90
11656;DHT22;5884;43.618;1.438;2022-10-22T10:44:23;21.90;99.90
11656;DHT22;5884;43.618;1.438;2022-10-22T10:47:10;22.00;99.90
11656;DHT22;5884;43.618;1.438;2022-10-22T10:49:42;22.00;99.90
11656;DHT22;5884;43.618;1.438;2022-10-22T10:52:15;22.00;99.90
11656;DHT22;5884;43.618;1.438;2022-10-22T10:54:56;22.00;99.90
11656;DHT22;5884;43.618;1.438;2022-10-22T10:57:38;22.10;99.90
11656;DHT22;5884;43.618;1.438;2022-10-22T11:00:15;22.20;99.90
11656;DHT22;5884;43.618;1.438;2022-10-22T11:03:04;22.20;99.90
11656;DHT22;5884;43.618;1.438;2022-10-22T11:05:52;22.30;99.90
11656;DHT22;5884;43.618;1.438;2022-10-22T11:08:22;22.30;99.90
11656;DHT22;5884;43.618;1.438;2022-10-22T11:10:53;22.40;99.90
11656;DHT22;5884;43.618;1.438;2022-10-22T11:13:27;22.60;99.90
11656;DHT22;5884;43.618;1.438;2022-10-22T11:16:02;22.60;99.90
11656;DHT22;5884;43.618;1.438;2022-10-22T11:18:35;22.60;99.90
11656;DHT22;5884;43.618;1.438;2022-10-22T11:21:13;22.70;99.90
11656;DHT22;5884;43.618;1.438;2022-10-22T11:23:47;22.70;99.90
11656;DHT22;5884;43.618;1.438;2022-10-22T11:26:25;22.80;99.90
11656;DHT22;5884;43.618;1.438;2022-10-22T11:28:58;22.90;99.90
11656;DHT22;5884;43.618;1.438;2022-10-22T11:31:29;22.90;99.90
11656;DHT22;5884;43.618;1.438;2022-10-22T11:34:04;23.00;99.90
11656;DHT22;5884;43.618;1.438;2022-10-22T11:36:35;23.00;99.90
11656;DHT22;5884;43.618;1.438;2022-10-22T11:39:04;23.00;99.90
11656;DHT22;5884;43.618;1.438;2022-10-22T11:41:33;22.90;99.90
11656;DHT22;5884;43.618;1.438;2022-10-22T11:44:08;22.80;99.90
11656;DHT22;5884;43.618;1.438;2022-10-22T11:46:43;22.80;99.90
11656;DHT22;5884;43.618;1.438;2022-10-22T11:49:21;22.90;99.90
11656;DHT22;5884;43.618;1.438;2022-10-22T11:51:51;23.00;99.90
11656;DHT22;5884;43.618;1.438;2022-10-22T11:54:40;23.00;99.90
11656;DHT22;5884;43.618;1.438;2022-10-22T11:57:21;23.00;99.90
11656;DHT22;5884;43.618;1.438;2022-10-22T11:59:56;23.00;99.90
11656;DHT22;5884;43.618;1.438;2022-10-22T12:02:40;23.00;99.90
11656;DHT22;5884;43.618;1.438;2022-10-22T12:05:34;23.00;99.90
11656;DHT22;5884;43.618;1.438;2022-10-22T12:08:13;23.10;99.90
11656;DHT22;5884;43.618;1.438;2022-10-22T12:10:54;23.00;99.90
11656;DHT22;5884;43.618;1.438;2022-10-22T12:13:26;23.00;99.90
11656;DHT22;5884;43.618;1.438;2022-10-22T12:15:57;23.00;99.90
11656;DHT22;5884;43.618;1.438;2022-10-22T12:18:34;23.00;99.90
11656;DHT22;5884;43.618;1.438;2022-10-22T12:21:11;23.00;99.90
11656;DHT22;5884;43.618;1.438;2022-10-22T12:23:39;23.10;99.90
11656;DHT22;5884;43.618;1.438;2022-10-22T12:26:22;23.20;99.90
11656;DHT22;5884;43.618;1.438;2022-10-22T12:28:50;23.30;99.90
11656;DHT22;5884;43.618;1.438;2022-10-22T12:31:17;23.30;99.90
11656;DHT22;5884;43.618;1.438;2022-10-22T12:33:44;23.50;99.90
11656;DHT22;5884;43.618;1.438;2022-10-22T12:36:17;23.50;99.90
11656;DHT22;5884;43.618;1.438;2022-10-22T12:38:45;23.50;99.90
11656;DHT22;5884;43.618;1.438;2022-10-22T12:41:13;23.60;99.90
11656;DHT22;5884;43.618;1.438;2022-10-22T12:43:40;23.60;99.90
11656;DHT22;5884;43.618;1.438;2022-10-22T12:46:10;23.80;99.90
11656;DHT22;5884;43.618;1.438;2022-10-22T12:48:41;23.70;99.90
11656;DHT22;5884;43.618;1.438;2022-10-22T12:51:14;23.80;99.90
11656;DHT22;5884;43.618;1.438;2022-10-22T12:53:46;23.80;99.90
11656;DHT22;5884;43.618;1.438;2022-10-22T12:56:17;23.70;99.90
11656;DHT22;5884;43.618;1.438;2022-10-22T12:58:50;23.70;99.90
11656;DHT22;5884;43.618;1.438;2022-10-22T13:01:19;23.80;99.90
11656;DHT22;5884;43.618;1.438;2022-10-22T13:03:47;23.80;99.90
11656;DHT22;5884;43.618;1.438;2022-10-22T13:06:24;23.80;99.90
11656;DHT22;5884;43.618;1.438;2022-10-22T13:09:01;23.70;99.90
11656;DHT22;5884;43.618;1.438;2022-10-22T13:11:33;23.80;99.90
11656;DHT22;5884;43.618;1.438;2022-10-22T13:14:17;23.80;99.90
11656;DHT22;5884;43.618;1.438;2022-10-22T13:17:04;23.90;99.90
11656;DHT22;5884;43.618;1.438;2022-10-22T13:19:42;23.90;99.90
11656;DHT22;5884;43.618;1.438;2022-10-22T13:22:30;23.90;99.90
11656;DHT22;5884;43.618;1.438;2022-10-22T13:25:04;24.00;99.90
11656;DHT22;5884;43.618;1.438;2022-10-22T13:27:47;24.00;99.90
11656;DHT22;5884;43.618;1.438;2022-10-22T13:30:21;24.10;99.90
11656;DHT22;5884;43.618;1.438;2022-10-22T13:32:53;24.20;99.90
11656;DHT22;5884;43.618;1.438;2022-10-22T13:35:24;24.30;99.90
11656;DHT22;5884;43.618;1.438;2022-10-22T13:37:53;24.40;99.90
11656;DHT22;5884;43.618;1.438;2022-10-22T13:40:21;24.50;99.90
11656;DHT22;5884;43.618;1.438;2022-10-22T13:42:48;24.50;99.90
11656;DHT22;5884;43.618;1.438;2022-10-22T13:45:16;24.60;99.90
11656;DHT22;5884;43.618;1.438;2022-10-22T13:47:46;24.60;99.90
11656;DHT22;5884;43.618;1.438;2022-10-22T13:50:17;24.60;99.90
11656;DHT22;5884;43.618;1.438;2022-10-22T13:52:48;24.60;99.90
11656;DHT22;5884;43.618;1.438;2022-10-22T13:55:20;24.70;99.90
11656;DHT22;5884;43.618;1.438;2022-10-22T13:58:10;24.70;99.90
11656;DHT22;5884;43.618;1.438;2022-10-22T14:01:23;24.60;99.90
11656;DHT22;5884;43.618;1.438;2022-10-22T14:04:30;24.60;99.90
11656;DHT22;5884;43.618;1.438;2022-10-22T14:07:00;24.80;99.90
11656;DHT22;5884;43.618;1.438;2022-10-22T14:09:27;24.90;99.90
11656;DHT22;5884;43.618;1.438;2022-10-22T14:11:56;24.90;99.90
11656;DHT22;5884;43.618;1.438;2022-10-22T14:14:23;25.00;99.90
11656;DHT22;5884;43.618;1.438;2022-10-22T14:16:50;25.20;99.90
11656;DHT22;5884;43.618;1.438;2022-10-22T14:19:18;25.30;99.90
11656;DHT22;5884;43.618;1.438;2022-10-22T14:21:45;25.40;99.90
11656;DHT22;5884;43.618;1.438;2022-10-22T14:24:13;25.50;99.90
11656;DHT22;5884;43.618;1.438;2022-10-22T14:26:41;25.40;99.90
11656;DHT22;5884;43.618;1.438;2022-10-22T14:29:09;25.50;99.90
11656;DHT22;5884;43.618;1.438;2022-10-22T14:31:37;25.50;99.90
11656;DHT22;5884;43.618;1.438;2022-10-22T14:34:05;25.40;99.90
11656;DHT22;5884;43.618;1.438;2022-10-22T14:36:32;25.40;99.90
11656;DHT22;5884;43.618;1.438;2022-10-22T14:38:59;25.30;99.90
11656;DHT22;5884;43.618;1.438;2022-10-22T14:41:27;25.30;99.90
11656;DHT22;5884;43.618;1.438;2022-10-22T14:43:55;25.30;99.90
11656;DHT22;5884;43.618;1.438;2022-10-22T14:46:25;25.20;99.90
11656;DHT22;5884;43.618;1.438;2022-10-22T14:48:52;25.20;99.90
11656;DHT22;5884;43.618;1.438;2022-10-22T14:51:20;25.00;99.90
11656;DHT22;5884;43.618;1.438;2022-10-22T14:53:48;25.00;99.90
11656;DHT22;5884;43.618;1.438;2022-10-22T14:56:18;25.00;99.90
11656;DHT22;5884;43.618;1.438;2022-10-22T14:58:46;25.00;99.90
11656;DHT22;5884;43.618;1.438;2022-10-22T15:01:13;24.90;99.90
11656;DHT22;5884;43.618;1.438;2022-10-22T15:03:42;24.70;99.90
11656;DHT22;5884;43.618;1.438;2022-10-22T15:06:10;24.70;99.90
11656;DHT22;5884;43.618;1.438;2022-10-22T15:08:37;24.70;99.90
11656;DHT22;5884;43.618;1.438;2022-10-22T15:11:06;24.70;99.90
11656;DHT22;5884;43.618;1.438;2022-10-22T15:13:35;24.70;99.90
11656;DHT22;5884;43.618;1.438;2022-10-22T15:16:05;24.60;99.90
11656;DHT22;5884;43.618;1.438;2022-10-22T15:18:33;24.60;99.90
11656;DHT22;5884;43.618;1.438;2022-10-22T15:21:04;24.60;99.90
11656;DHT22;5884;43.618;1.438;2022-10-22T15:23:32;24.50;99.90
11656;DHT22;5884;43.618;1.438;2022-10-22T15:26:06;24.50;99.90
11656;DHT22;5884;43.618;1.438;2022-10-22T15:28:35;24.50;99.90
11656;DHT22;5884;43.618;1.438;2022-10-22T15:31:02;24.40;99.90
11656;DHT22;5884;43.618;1.438;2022-10-22T15:33:30;24.40;99.90
11656;DHT22;5884;43.618;1.438;2022-10-22T15:35:57;24.30;99.90
11656;DHT22;5884;43.618;1.438;2022-10-22T15:38:27;24.40;99.90
11656;DHT22;5884;43.618;1.438;2022-10-22T15:41:00;24.30;99.90
11656;DHT22;5884;43.618;1.438;2022-10-22T15:43:27;24.30;99.90
11656;DHT22;5884;43.618;1.438;2022-10-22T15:46:10;24.30;99.90
11656;DHT22;5884;43.618;1.438;2022-10-22T15:48:38;24.30;99.90
11656;DHT22;5884;43.618;1.438;2022-10-22T15:51:10;24.20;99.90
11656;DHT22;5884;43.618;1.438;2022-10-22T15:53:40;24.20;99.90
11656;DHT22;5884;43.618;1.438;2022-10-22T15:56:08;24.10;99.90
11656;DHT22;5884;43.618;1.438;2022-10-22T15:58:36;24.00;99.90
11656;DHT22;5884;43.618;1.438;2022-10-22T16:01:04;24.00;99.90
11656;DHT22;5884;43.618;1.438;2022-10-22T16:03:32;24.00;99.90
11656;DHT22;5884;43.618;1.438;2022-10-22T16:06:00;23.90;99.90
11656;DHT22;5884;43.618;1.438;2022-10-22T16:08:27;23.80;99.90
11656;DHT22;5884;43.618;1.438;2022-10-22T16:10:56;23.70;99.90
11656;DHT22;5884;43.618;1.438;2022-10-22T16:13:23;23.70;99.90
11656;DHT22;5884;43.618;1.438;2022-10-22T16:15:52;23.60;99.90
11656;DHT22;5884;43.618;1.438;2022-10-22T16:18:20;23.50;99.90
11656;DHT22;5884;43.618;1.438;2022-10-22T16:20:48;23.40;99.90
11656;DHT22;5884;43.618;1.438;2022-10-22T16:23:15;23.40;99.90
11656;DHT22;5884;43.618;1.438;2022-10-22T16:25:43;23.30;99.90
11656;DHT22;5884;43.618;1.438;2022-10-22T16:28:13;23.20;99.90
11656;DHT22;5884;43.618;1.438;2022-10-22T16:30:40;23.20;99.90
11656;DHT22;5884;43.618;1.438;2022-10-22T16:33:09;23.10;99.90
11656;DHT22;5884;43.618;1.438;2022-10-22T16:35:39;23.00;99.90
11656;DHT22;5884;43.618;1.438;2022-10-22T16:38:07;23.00;99.90
11656;DHT22;5884;43.618;1.438;2022-10-22T16:40:35;22.90;99.90
11656;DHT22;5884;43.618;1.438;2022-10-22T16:43:02;22.80;99.90
11656;DHT22;5884;43.618;1.438;2022-10-22T16:45:31;22.80;99.90
11656;DHT22;5884;43.618;1.438;2022-10-22T16:47:58;22.70;99.90
11656;DHT22;5884;43.618;1.438;2022-10-22T16:50:26;22.70;99.90
11656;DHT22;5884;43.618;1.438;2022-10-22T16:52:53;22.60;99.90
11656;DHT22;5884;43.618;1.438;2022-10-22T16:55:20;22.60;99.90
11656;DHT22;5884;43.618;1.438;2022-10-22T16:57:51;22.60;99.90
11656;DHT22;5884;43.618;1.438;2022-10-22T17:00:19;22.40;99.90
11656;DHT22;5884;43.618;1.438;2022-10-22T17:02:52;22.40;99.90
11656;DHT22;5884;43.618;1.438;2022-10-22T17:05:20;22.30;99.90
11656;DHT22;5884;43.618;1.438;2022-10-22T17:07:47;22.30;99.90
11656;DHT22;5884;43.618;1.438;2022-10-22T17:10:16;22.20;99.90
11656;DHT22;5884;43.618;1.438;2022-10-22T17:12:44;22.20;99.90
11656;DHT22;5884;43.618;1.438;2022-10-22T17:15:12;22.20;99.90
11656;DHT22;5884;43.618;1.438;2022-10-22T17:17:39;22.10;99.90
11656;DHT22;5884;43.618;1.438;2022-10-22T17:20:10;22.00;99.90
11656;DHT22;5884;43.618;1.438;2022-10-22T17:22:37;22.00;99.90
11656;DHT22;5884;43.618;1.438;2022-10-22T17:25:12;22.00;99.90
11656;DHT22;5884;43.618;1.438;2022-10-22T17:27:41;21.90;99.90
11656;DHT22;5884;43.618;1.438;2022-10-22T17:30:11;21.80;99.90
11656;DHT22;5884;43.618;1.438;2022-10-22T17:32:38;21.80;99.90
11656;DHT22;5884;43.618;1.438;2022-10-22T17:35:08;21.70;99.90
11656;DHT22;5884;43.618;1.438;2022-10-22T17:37:35;21.70;99.90
11656;DHT22;5884;43.618;1.438;2022-10-22T17:40:04;21.60;99.90
11656;DHT22;5884;43.618;1.438;2022-10-22T17:42:31;21.60;99.90
11656;DHT22;5884;43.618;1.438;2022-10-22T17:44:59;21.60;99.90
11656;DHT22;5884;43.618;1.438;2022-10-22T17:47:26;21.50;99.90
11656;DHT22;5884;43.618;1.438;2022-10-22T17:49:53;21.50;99.90
11656;DHT22;5884;43.618;1.438;2022-10-22T17:52:22;21.50;99.90
11656;DHT22;5884;43.618;1.438;2022-10-22T17:54:49;21.50;99.90
11656;DHT22;5884;43.618;1.438;2022-10-22T17:57:17;21.40;99.90
11656;DHT22;5884;43.618;1.438;2022-10-22T17:59:45;21.40;99.90
11656;DHT22;5884;43.618;1.438;2022-10-22T18:02:14;21.30;99.90
11656;DHT22;5884;43.618;1.438;2022-10-22T18:04:43;21.40;99.90
11656;DHT22;5884;43.618;1.438;2022-10-22T18:07:10;21.30;99.90
11656;DHT22;5884;43.618;1.438;2022-10-22T18:09:39;21.20;99.90
11656;DHT22;5884;43.618;1.438;2022-10-22T18:12:07;21.30;99.90
11656;DHT22;5884;43.618;1.438;2022-10-22T18:14:36;21.30;99.90
11656;DHT22;5884;43.618;1.438;2022-10-22T18:17:03;21.20;99.90
11656;DHT22;5884;43.618;1.438;2022-10-22T18:19:30;21.10;99.90
11656;DHT22;5884;43.618;1.438;2022-10-22T18:21:58;21.10;99.90
11656;DHT22;5884;43.618;1.438;2022-10-22T18:24:25;21.10;99.90
11656;DHT22;5884;43.618;1.438;2022-10-22T18:26:54;21.00;99.90
11656;DHT22;5884;43.618;1.438;2022-10-22T18:29:21;21.00;99.90
11656;DHT22;5884;43.618;1.438;2022-10-22T18:31:48;21.00;99.90
11656;DHT22;5884;43.618;1.438;2022-10-22T18:34:17;20.90;99.90
11656;DHT22;5884;43.618;1.438;2022-10-22T18:36:44;20.90;99.90
11656;DHT22;5884;43.618;1.438;2022-10-22T18:39:13;20.80;99.90
11656;DHT22;5884;43.618;1.438;2022-10-22T18:41:41;20.80;99.90
11656;DHT22;5884;43.618;1.438;2022-10-22T18:44:12;20.70;99.90
11656;DHT22;5884;43.618;1.438;2022-10-22T18:46:40;20.70;99.90
11656;DHT22;5884;43.618;1.438;2022-10-22T18:49:07;20.70;99.90
11656;DHT22;5884;43.618;1.438;2022-10-22T18:51:36;20.60;99.90
11656;DHT22;5884;43.618;1.438;2022-10-22T18:54:03;20.60;99.90
11656;DHT22;5884;43.618;1.438;2022-10-22T18:56:31;20.60;99.90
11656;DHT22;5884;43.618;1.438;2022-10-22T18:58:58;20.60;99.90
11656;DHT22;5884;43.618;1.438;2022-10-22T19:01:26;20.50;99.90
11656;DHT22;5884;43.618;1.438;2022-10-22T19:03:55;20.40;99.90
11656;DHT22;5884;43.618;1.438;2022-10-22T19:06:27;20.40;99.90
11656;DHT22;5884;43.618;1.438;2022-10-22T19:08:57;20.40;99.90
11656;DHT22;5884;43.618;1.438;2022-10-22T19:11:24;20.40;99.90
11656;DHT22;5884;43.618;1.438;2022-10-22T19:13:52;20.30;99.90
11656;DHT22;5884;43.618;1.438;2022-10-22T19:16:20;20.30;99.90
11656;DHT22;5884;43.618;1.438;2022-10-22T19:18:51;20.40;99.90
11656;DHT22;5884;43.618;1.438;2022-10-22T19:21:19;20.30;99.90
11656;DHT22;5884;43.618;1.438;2022-10-22T19:23:47;20.30;99.90
11656;DHT22;5884;43.618;1.438;2022-10-22T19:26:16;20.30;99.90
11656;DHT22;5884;43.618;1.438;2022-10-22T19:28:46;20.20;99.90
11656;DHT22;5884;43.618;1.438;2022-10-22T19:31:17;20.20;99.90
11656;DHT22;5884;43.618;1.438;2022-10-22T19:33:46;20.20;99.90
11656;DHT22;5884;43.618;1.438;2022-10-22T19:36:17;20.20;99.90
11656;DHT22;5884;43.618;1.438;2022-10-22T19:38:47;20.20;99.90
11656;DHT22;5884;43.618;1.438;2022-10-22T19:41:16;20.20;99.90
11656;DHT22;5884;43.618;1.438;2022-10-22T19:43:47;20.10;99.90
11656;DHT22;5884;43.618;1.438;2022-10-22T19:46:17;20.10;99.90
11656;DHT22;5884;43.618;1.438;2022-10-22T19:48:45;20.10;99.90
11656;DHT22;5884;43.618;1.438;2022-10-22T19:51:17;20.10;99.90
11656;DHT22;5884;43.618;1.438;2022-10-22T19:53:45;20.00;99.90
11656;DHT22;5884;43.618;1.438;2022-10-22T19:56:16;20.00;99.90
11656;DHT22;5884;43.618;1.438;2022-10-22T19:58:44;20.00;99.90
11656;DHT22;5884;43.618;1.438;2022-10-22T20:01:13;20.00;99.90
11656;DHT22;5884;43.618;1.438;2022-10-22T20:03:41;20.00;99.90
11656;DHT22;5884;43.618;1.438;2022-10-22T20:06:10;20.00;99.90
11656;DHT22;5884;43.618;1.438;2022-10-22T20:08:40;19.90;99.90
11656;DHT22;5884;43.618;1.438;2022-10-22T20:11:09;19.90;99.90
11656;DHT22;5884;43.618;1.438;2022-10-22T20:13:37;19.80;99.90
11656;DHT22;5884;43.618;1.438;2022-10-22T20:16:05;19.80;99.90
11656;DHT22;5884;43.618;1.438;2022-10-22T20:18:32;19.80;99.90
11656;DHT22;5884;43.618;1.438;2022-10-22T20:21:03;19.80;99.90
11656;DHT22;5884;43.618;1.438;2022-10-22T20:23:30;19.80;99.90
11656;DHT22;5884;43.618;1.438;2022-10-22T20:25:59;19.70;99.90
11656;DHT22;5884;43.618;1.438;2022-10-22T20:28:27;19.70;99.90
11656;DHT22;5884;43.618;1.438;2022-10-22T20:30:54;19.70;99.90
11656;DHT22;5884;43.618;1.438;2022-10-22T20:33:21;19.70;99.90
11656;DHT22;5884;43.618;1.438;2022-10-22T20:35:57;19.70;99.90
11656;DHT22;5884;43.618;1.438;2022-10-22T20:38:25;19.60;99.90
11656;DHT22;5884;43.618;1.438;2022-10-22T20:41:02;19.60;99.90
11656;DHT22;5884;43.618;1.438;2022-10-22T20:43:31;19.60;99.90
11656;DHT22;5884;43.618;1.438;2022-10-22T20:45:59;19.50;99.90
11656;DHT22;5884;43.618;1.438;2022-10-22T20:48:27;19.60;99.90
11656;DHT22;5884;43.618;1.438;2022-10-22T20:50:56;19.50;99.90
11656;DHT22;5884;43.618;1.438;2022-10-22T20:53:24;19.50;99.90
11656;DHT22;5884;43.618;1.438;2022-10-22T20:55:55;19.50;99.90